sensor_id;sensor_type;location;lat;lon;timestamp;P1;durP1;ratioP1;P2;durP2;ratioP2
25868;SDS011;13688;53.154;18.136;2022-10-17T00:01:28;21.97;;;12.13;;
25868;SDS011;13688;53.154;18.136;2022-10-17T00:06:51;17.43;;;11.43;;
25868;SDS011;13688;53.154;18.136;2022-10-17T00:12:13;17.40;;;11.53;;
25868;SDS011;13688;53.154;18.136;2022-10-17T00:17:35;17.40;;;10.60;;
25868;SDS011;13688;53.154;18.136;2022-10-17T00:22:58;12.90;;;10.40;;
25868;SDS011;13688;53.154;18.136;2022-10-17T00:28:20;15.33;;;10.17;;
25868;SDS011;13688;53.154;18.136;2022-10-17T00:33:42;14.53;;;11.13;;
25868;SDS011;13688;53.154;18.136;2022-10-17T00:39:04;17.77;;;11.07;;
25868;SDS011;13688;53.154;18.136;2022-10-17T00:50:00;17.67;;;12.43;;
25868;SDS011;13688;53.154;18.136;2022-10-17T00:55:24;16.40;;;11.13;;
25868;SDS011;13688;53.154;18.136;2022-10-17T01:00:53;18.30;;;11.57;;
25868;SDS011;13688;53.154;18.136;2022-10-17T01:06:16;17.37;;;12.57;;
25868;SDS011;13688;53.154;18.136;2022-10-17T01:11:43;21.87;;;13.60;;
25868;SDS011;13688;53.154;18.136;2022-10-17T01:17:41;24.93;;;16.37;;
25868;SDS011;13688;53.154;18.136;2022-10-17T01:29:15;24.53;;;16.67;;
25868;SDS011;13688;53.154;18.136;2022-10-17T01:34:45;19.70;;;13.05;;
25868;SDS011;13688;53.154;18.136;2022-10-17T01:45:51;21.53;;;15.10;;
25868;SDS011;13688;53.154;18.136;2022-10-17T01:56:55;22.03;;;16.17;;
25868;SDS011;13688;53.154;18.136;2022-10-17T02:02:22;19.70;;;14.00;;
25868;SDS011;13688;53.154;18.136;2022-10-17T02:07:45;21.52;;;14.35;;
25868;SDS011;13688;53.154;18.136;2022-10-17T02:13:26;24.70;;;16.07;;
25868;SDS011;13688;53.154;18.136;2022-10-17T02:19:06;26.47;;;14.40;;
25868;SDS011;13688;53.154;18.136;2022-10-17T02:24:34;22.90;;;14.93;;
25868;SDS011;13688;53.154;18.136;2022-10-17T02:35:56;17.33;;;12.57;;
25868;SDS011;13688;53.154;18.136;2022-10-17T02:41:21;25.95;;;14.13;;
25868;SDS011;13688;53.154;18.136;2022-10-17T02:46:47;18.67;;;13.13;;
25868;SDS011;13688;53.154;18.136;2022-10-17T02:52:17;20.97;;;13.50;;
25868;SDS011;13688;53.154;18.136;2022-10-17T02:57:56;21.35;;;14.15;;
25868;SDS011;13688;53.154;18.136;2022-10-17T03:08:47;17.40;;;13.27;;
25868;SDS011;13688;53.154;18.136;2022-10-17T03:14:09;21.43;;;14.27;;
25868;SDS011;13688;53.154;18.136;2022-10-17T03:19:32;21.80;;;13.38;;
25868;SDS011;13688;53.154;18.136;2022-10-17T03:24:54;19.50;;;12.90;;
25868;SDS011;13688;53.154;18.136;2022-10-17T03:30:17;19.67;;;13.28;;
25868;SDS011;13688;53.154;18.136;2022-10-17T03:35:39;17.70;;;12.93;;
25868;SDS011;13688;53.154;18.136;2022-10-17T03:41:01;15.90;;;12.90;;
25868;SDS011;13688;53.154;18.136;2022-10-17T03:46:24;16.93;;;13.40;;
25868;SDS011;13688;53.154;18.136;2022-10-17T03:51:46;18.90;;;14.00;;
25868;SDS011;13688;53.154;18.136;2022-10-17T03:57:09;16.93;;;13.03;;
25868;SDS011;13688;53.154;18.136;2022-10-17T04:02:33;18.93;;;12.43;;
25868;SDS011;13688;53.154;18.136;2022-10-17T04:07:56;18.57;;;13.20;;
25868;SDS011;13688;53.154;18.136;2022-10-17T04:13:18;18.77;;;13.13;;
25868;SDS011;13688;53.154;18.136;2022-10-17T04:18:40;17.47;;;12.97;;
25868;SDS011;13688;53.154;18.136;2022-10-17T04:24:08;22.67;;;13.18;;
25868;SDS011;13688;53.154;18.136;2022-10-17T04:29:31;22.57;;;14.43;;
25868;SDS011;13688;53.154;18.136;2022-10-17T04:34:53;17.07;;;12.80;;
25868;SDS011;13688;53.154;18.136;2022-10-17T04:40:16;18.37;;;12.80;;
25868;SDS011;13688;53.154;18.136;2022-10-17T04:45:40;16.95;;;12.18;;
25868;SDS011;13688;53.154;18.136;2022-10-17T04:51:03;17.53;;;13.33;;
25868;SDS011;13688;53.154;18.136;2022-10-17T04:56:29;17.57;;;12.05;;
25868;SDS011;13688;53.154;18.136;2022-10-17T05:01:52;15.25;;;11.63;;
25868;SDS011;13688;53.154;18.136;2022-10-17T05:07:14;18.17;;;12.10;;
25868;SDS011;13688;53.154;18.136;2022-10-17T05:12:36;17.03;;;12.77;;
25868;SDS011;13688;53.154;18.136;2022-10-17T05:17:58;17.33;;;11.80;;
25868;SDS011;13688;53.154;18.136;2022-10-17T05:23:22;17.32;;;11.45;;
25868;SDS011;13688;53.154;18.136;2022-10-17T05:28:44;17.77;;;11.50;;
25868;SDS011;13688;53.154;18.136;2022-10-17T05:34:08;18.73;;;12.17;;
25868;SDS011;13688;53.154;18.136;2022-10-17T05:39:31;20.83;;;11.83;;
25868;SDS011;13688;53.154;18.136;2022-10-17T05:44:54;16.42;;;10.18;;
25868;SDS011;13688;53.154;18.136;2022-10-17T05:50:16;24.02;;;11.33;;
25868;SDS011;13688;53.154;18.136;2022-10-17T05:55:39;16.80;;;10.90;;
25868;SDS011;13688;53.154;18.136;2022-10-17T06:01:06;18.10;;;10.82;;
25868;SDS011;13688;53.154;18.136;2022-10-17T06:06:30;18.35;;;11.05;;
25868;SDS011;13688;53.154;18.136;2022-10-17T06:11:52;20.75;;;12.03;;
25868;SDS011;13688;53.154;18.136;2022-10-17T06:17:15;25.65;;;12.25;;
25868;SDS011;13688;53.154;18.136;2022-10-17T06:22:38;24.85;;;14.10;;
25868;SDS011;13688;53.154;18.136;2022-10-17T06:28:00;22.30;;;13.90;;
25868;SDS011;13688;53.154;18.136;2022-10-17T06:33:23;24.27;;;13.62;;
25868;SDS011;13688;53.154;18.136;2022-10-17T06:38:45;22.60;;;13.85;;
25868;SDS011;13688;53.154;18.136;2022-10-17T06:44:08;29.85;;;14.35;;
25868;SDS011;13688;53.154;18.136;2022-10-17T06:49:32;22.67;;;14.43;;
25868;SDS011;13688;53.154;18.136;2022-10-17T06:54:54;22.25;;;14.43;;
25868;SDS011;13688;53.154;18.136;2022-10-17T07:00:18;20.73;;;14.60;;
25868;SDS011;13688;53.154;18.136;2022-10-17T07:05:41;23.40;;;15.13;;
25868;SDS011;13688;53.154;18.136;2022-10-17T07:11:10;25.37;;;17.12;;
25868;SDS011;13688;53.154;18.136;2022-10-17T07:16:36;26.77;;;16.67;;
25868;SDS011;13688;53.154;18.136;2022-10-17T07:21:59;28.03;;;17.03;;
25868;SDS011;13688;53.154;18.136;2022-10-17T07:27:23;25.00;;;16.60;;
25868;SDS011;13688;53.154;18.136;2022-10-17T07:32:45;30.48;;;17.12;;
25868;SDS011;13688;53.154;18.136;2022-10-17T07:38:09;25.70;;;17.33;;
25868;SDS011;13688;53.154;18.136;2022-10-17T07:43:32;24.17;;;17.73;;
25868;SDS011;13688;53.154;18.136;2022-10-17T07:48:55;27.10;;;18.00;;
25868;SDS011;13688;53.154;18.136;2022-10-17T07:54:17;23.00;;;17.23;;
25868;SDS011;13688;53.154;18.136;2022-10-17T07:59:40;28.05;;;18.87;;
25868;SDS011;13688;53.154;18.136;2022-10-17T08:05:02;25.17;;;17.90;;
25868;SDS011;13688;53.154;18.136;2022-10-17T08:10:25;29.02;;;18.20;;
25868;SDS011;13688;53.154;18.136;2022-10-17T08:15:47;29.20;;;18.10;;
25868;SDS011;13688;53.154;18.136;2022-10-17T08:21:12;31.07;;;19.10;;
25868;SDS011;13688;53.154;18.136;2022-10-17T08:26:34;27.20;;;19.35;;
25868;SDS011;13688;53.154;18.136;2022-10-17T08:31:57;31.87;;;19.33;;
25868;SDS011;13688;53.154;18.136;2022-10-17T08:37:19;28.23;;;19.45;;
25868;SDS011;13688;53.154;18.136;2022-10-17T08:42:44;27.55;;;20.85;;
25868;SDS011;13688;53.154;18.136;2022-10-17T08:48:23;27.33;;;20.03;;
25868;SDS011;13688;53.154;18.136;2022-10-17T08:59:24;25.10;;;20.12;;
25868;SDS011;13688;53.154;18.136;2022-10-17T09:05:07;25.45;;;20.00;;
25868;SDS011;13688;53.154;18.136;2022-10-17T09:10:57;27.52;;;20.65;;
25868;SDS011;13688;53.154;18.136;2022-10-17T09:22:29;31.48;;;22.30;;
25868;SDS011;13688;53.154;18.136;2022-10-17T09:33:49;24.23;;;18.95;;
25868;SDS011;13688;53.154;18.136;2022-10-17T09:39:18;24.55;;;19.75;;
25868;SDS011;13688;53.154;18.136;2022-10-17T09:44:48;30.43;;;19.73;;
25868;SDS011;13688;53.154;18.136;2022-10-17T09:50:54;26.90;;;19.33;;
25868;SDS011;13688;53.154;18.136;2022-10-17T09:56:19;25.20;;;19.67;;
25868;SDS011;13688;53.154;18.136;2022-10-17T10:01:43;28.27;;;19.02;;
25868;SDS011;13688;53.154;18.136;2022-10-17T10:07:24;28.07;;;19.70;;
25868;SDS011;13688;53.154;18.136;2022-10-17T10:18:33;22.93;;;18.93;;
25868;SDS011;13688;53.154;18.136;2022-10-17T10:24:11;29.23;;;19.37;;
25868;SDS011;13688;53.154;18.136;2022-10-17T10:29:35;25.93;;;19.30;;
25868;SDS011;13688;53.154;18.136;2022-10-17T10:40:46;29.40;;;19.77;;
25868;SDS011;13688;53.154;18.136;2022-10-17T10:46:19;29.72;;;19.52;;
25868;SDS011;13688;53.154;18.136;2022-10-17T10:51:44;28.57;;;20.55;;
25868;SDS011;13688;53.154;18.136;2022-10-17T10:57:09;26.75;;;19.15;;
25868;SDS011;13688;53.154;18.136;2022-10-17T11:02:36;24.67;;;18.33;;
25868;SDS011;13688;53.154;18.136;2022-10-17T11:08:33;29.23;;;20.73;;
25868;SDS011;13688;53.154;18.136;2022-10-17T11:14:09;25.00;;;18.47;;
25868;SDS011;13688;53.154;18.136;2022-10-17T11:19:47;23.63;;;18.63;;
25868;SDS011;13688;53.154;18.136;2022-10-17T11:25:23;22.57;;;16.93;;
25868;SDS011;13688;53.154;18.136;2022-10-17T11:36:33;21.73;;;17.20;;
25868;SDS011;13688;53.154;18.136;2022-10-17T11:41:55;20.23;;;16.77;;
25868;SDS011;13688;53.154;18.136;2022-10-17T11:53:10;21.47;;;13.73;;
25868;SDS011;13688;53.154;18.136;2022-10-17T12:10:15;25.48;;;17.05;;
25868;SDS011;13688;53.154;18.136;2022-10-17T12:15:50;20.87;;;16.50;;
25868;SDS011;13688;53.154;18.136;2022-10-17T12:21:52;21.50;;;14.87;;
25868;SDS011;13688;53.154;18.136;2022-10-17T12:38:27;18.57;;;15.97;;
25868;SDS011;13688;53.154;18.136;2022-10-17T12:43:52;22.13;;;16.40;;
25868;SDS011;13688;53.154;18.136;2022-10-17T12:55:14;21.80;;;17.13;;
25868;SDS011;13688;53.154;18.136;2022-10-17T13:00:54;20.30;;;16.63;;
25868;SDS011;13688;53.154;18.136;2022-10-17T13:06:26;20.77;;;15.63;;
25868;SDS011;13688;53.154;18.136;2022-10-17T13:11:47;30.73;;;23.13;;
25868;SDS011;13688;53.154;18.136;2022-10-17T13:17:24;25.00;;;17.87;;
25868;SDS011;13688;53.154;18.136;2022-10-17T13:22:46;22.80;;;17.43;;
25868;SDS011;13688;53.154;18.136;2022-10-17T13:28:11;23.40;;;16.90;;
25868;SDS011;13688;53.154;18.136;2022-10-17T13:33:39;21.27;;;15.83;;
25868;SDS011;13688;53.154;18.136;2022-10-17T13:39:05;24.27;;;16.70;;
25868;SDS011;13688;53.154;18.136;2022-10-17T13:44:34;24.63;;;17.10;;
25868;SDS011;13688;53.154;18.136;2022-10-17T13:49:57;20.70;;;15.70;;
25868;SDS011;13688;53.154;18.136;2022-10-17T13:55:30;20.32;;;15.20;;
25868;SDS011;13688;53.154;18.136;2022-10-17T14:01:04;23.73;;;15.87;;
25868;SDS011;13688;53.154;18.136;2022-10-17T14:06:29;21.62;;;15.28;;
25868;SDS011;13688;53.154;18.136;2022-10-17T14:12:17;17.53;;;14.50;;
25868;SDS011;13688;53.154;18.136;2022-10-17T14:17:28;18.65;;;15.20;;
25868;SDS011;13688;53.154;18.136;2022-10-17T14:22:52;19.30;;;15.63;;
25868;SDS011;13688;53.154;18.136;2022-10-17T14:28:18;19.30;;;15.10;;
25868;SDS011;13688;53.154;18.136;2022-10-17T14:33:44;18.65;;;15.95;;
25868;SDS011;13688;53.154;18.136;2022-10-17T14:39:15;19.57;;;16.40;;
25868;SDS011;13688;53.154;18.136;2022-10-17T14:44:35;22.17;;;17.27;;
25868;SDS011;13688;53.154;18.136;2022-10-17T14:50:03;22.93;;;16.73;;
25868;SDS011;13688;53.154;18.136;2022-10-17T14:55:34;22.35;;;17.12;;
25868;SDS011;13688;53.154;18.136;2022-10-17T15:01:06;26.17;;;18.40;;
25868;SDS011;13688;53.154;18.136;2022-10-17T15:06:30;21.68;;;17.65;;
25868;SDS011;13688;53.154;18.136;2022-10-17T15:11:54;23.32;;;16.52;;
25868;SDS011;13688;53.154;18.136;2022-10-17T15:17:26;23.12;;;15.55;;
25868;SDS011;13688;53.154;18.136;2022-10-17T15:22:50;20.80;;;15.85;;
25868;SDS011;13688;53.154;18.136;2022-10-17T15:28:13;23.30;;;17.82;;
25868;SDS011;13688;53.154;18.136;2022-10-17T15:33:36;25.57;;;17.92;;
25868;SDS011;13688;53.154;18.136;2022-10-17T15:39:00;23.75;;;17.67;;
25868;SDS011;13688;53.154;18.136;2022-10-17T15:44:24;29.55;;;19.15;;
25868;SDS011;13688;53.154;18.136;2022-10-17T15:49:47;25.40;;;18.13;;
25868;SDS011;13688;53.154;18.136;2022-10-17T15:55:11;23.65;;;15.93;;
25868;SDS011;13688;53.154;18.136;2022-10-17T16:00:34;23.32;;;16.02;;
25868;SDS011;13688;53.154;18.136;2022-10-17T16:05:56;22.15;;;16.37;;
25868;SDS011;13688;53.154;18.136;2022-10-17T16:11:30;26.48;;;15.72;;
25868;SDS011;13688;53.154;18.136;2022-10-17T16:16:55;22.50;;;17.53;;
25868;SDS011;13688;53.154;18.136;2022-10-17T16:22:25;23.03;;;17.80;;
25868;SDS011;13688;53.154;18.136;2022-10-17T16:27:46;23.77;;;18.60;;
25868;SDS011;13688;53.154;18.136;2022-10-17T16:33:11;24.83;;;18.00;;
25868;SDS011;13688;53.154;18.136;2022-10-17T16:38:33;23.13;;;17.03;;
25868;SDS011;13688;53.154;18.136;2022-10-17T16:43:58;25.70;;;15.35;;
25868;SDS011;13688;53.154;18.136;2022-10-17T16:49:22;22.02;;;16.67;;
25868;SDS011;13688;53.154;18.136;2022-10-17T16:54:46;18.77;;;15.60;;
25868;SDS011;13688;53.154;18.136;2022-10-17T17:00:13;22.67;;;16.62;;
25868;SDS011;13688;53.154;18.136;2022-10-17T17:05:35;21.70;;;16.30;;
25868;SDS011;13688;53.154;18.136;2022-10-17T17:11:00;27.23;;;18.17;;
25868;SDS011;13688;53.154;18.136;2022-10-17T17:16:25;29.27;;;19.13;;
25868;SDS011;13688;53.154;18.136;2022-10-17T17:21:48;25.17;;;20.15;;
25868;SDS011;13688;53.154;18.136;2022-10-17T17:27:10;46.07;;;33.23;;
25868;SDS011;13688;53.154;18.136;2022-10-17T17:32:33;26.45;;;19.85;;
25868;SDS011;13688;53.154;18.136;2022-10-17T17:37:55;29.40;;;19.93;;
25868;SDS011;13688;53.154;18.136;2022-10-17T17:43:17;25.03;;;19.60;;
25868;SDS011;13688;53.154;18.136;2022-10-17T17:48:40;27.93;;;20.80;;
25868;SDS011;13688;53.154;18.136;2022-10-17T17:54:03;29.18;;;20.68;;
25868;SDS011;13688;53.154;18.136;2022-10-17T17:59:25;29.47;;;20.67;;
25868;SDS011;13688;53.154;18.136;2022-10-17T18:04:47;28.60;;;21.15;;
25868;SDS011;13688;53.154;18.136;2022-10-17T18:10:10;31.93;;;22.20;;
25868;SDS011;13688;53.154;18.136;2022-10-17T18:15:32;33.93;;;22.63;;
25868;SDS011;13688;53.154;18.136;2022-10-17T18:21:00;24.98;;;19.27;;
25868;SDS011;13688;53.154;18.136;2022-10-17T18:26:24;32.90;;;24.07;;
25868;SDS011;13688;53.154;18.136;2022-10-17T18:31:47;24.82;;;18.98;;
25868;SDS011;13688;53.154;18.136;2022-10-17T18:37:10;25.15;;;18.85;;
25868;SDS011;13688;53.154;18.136;2022-10-17T18:42:33;28.55;;;20.12;;
25868;SDS011;13688;53.154;18.136;2022-10-17T18:47:56;28.92;;;19.07;;
25868;SDS011;13688;53.154;18.136;2022-10-17T18:53:20;27.25;;;18.70;;
25868;SDS011;13688;53.154;18.136;2022-10-17T18:58:44;32.20;;;19.07;;
25868;SDS011;13688;53.154;18.136;2022-10-17T19:04:06;34.43;;;18.98;;
25868;SDS011;13688;53.154;18.136;2022-10-17T19:09:29;27.48;;;19.07;;
25868;SDS011;13688;53.154;18.136;2022-10-17T19:14:51;34.23;;;19.55;;
25868;SDS011;13688;53.154;18.136;2022-10-17T19:20:13;28.20;;;18.93;;
25868;SDS011;13688;53.154;18.136;2022-10-17T19:25:36;29.25;;;19.92;;
25868;SDS011;13688;53.154;18.136;2022-10-17T19:31:00;31.03;;;20.37;;
25868;SDS011;13688;53.154;18.136;2022-10-17T19:36:26;53.13;;;37.93;;
25868;SDS011;13688;53.154;18.136;2022-10-17T19:41:50;37.43;;;23.50;;
25868;SDS011;13688;53.154;18.136;2022-10-17T19:47:12;39.20;;;22.73;;
25868;SDS011;13688;53.154;18.136;2022-10-17T19:52:34;35.23;;;20.80;;
25868;SDS011;13688;53.154;18.136;2022-10-17T19:57:56;30.50;;;21.00;;
25868;SDS011;13688;53.154;18.136;2022-10-17T20:03:19;33.10;;;20.73;;
25868;SDS011;13688;53.154;18.136;2022-10-17T20:08:42;34.47;;;22.10;;
25868;SDS011;13688;53.154;18.136;2022-10-17T20:14:04;31.40;;;19.50;;
25868;SDS011;13688;53.154;18.136;2022-10-17T20:19:26;31.23;;;18.75;;
25868;SDS011;13688;53.154;18.136;2022-10-17T20:24:49;30.65;;;20.52;;
25868;SDS011;13688;53.154;18.136;2022-10-17T20:30:12;30.45;;;21.33;;
25868;SDS011;13688;53.154;18.136;2022-10-17T20:35:39;32.27;;;21.97;;
25868;SDS011;13688;53.154;18.136;2022-10-17T20:41:03;36.65;;;21.52;;
25868;SDS011;13688;53.154;18.136;2022-10-17T20:46:26;31.57;;;21.50;;
25868;SDS011;13688;53.154;18.136;2022-10-17T20:51:50;28.62;;;20.65;;
25868;SDS011;13688;53.154;18.136;2022-10-17T20:57:12;31.17;;;21.48;;
25868;SDS011;13688;53.154;18.136;2022-10-17T21:02:35;33.47;;;20.77;;
25868;SDS011;13688;53.154;18.136;2022-10-17T21:07:58;31.23;;;22.17;;
25868;SDS011;13688;53.154;18.136;2022-10-17T21:13:21;35.40;;;23.90;;
25868;SDS011;13688;53.154;18.136;2022-10-17T21:18:44;46.23;;;29.17;;
25868;SDS011;13688;53.154;18.136;2022-10-17T21:24:07;41.48;;;27.32;;
25868;SDS011;13688;53.154;18.136;2022-10-17T21:29:31;41.67;;;26.80;;
25868;SDS011;13688;53.154;18.136;2022-10-17T21:34:54;37.70;;;25.90;;
25868;SDS011;13688;53.154;18.136;2022-10-17T21:40:16;38.83;;;26.37;;
25868;SDS011;13688;53.154;18.136;2022-10-17T21:45:38;38.17;;;26.23;;
25868;SDS011;13688;53.154;18.136;2022-10-17T21:51:02;32.38;;;23.70;;
25868;SDS011;13688;53.154;18.136;2022-10-17T21:56:26;37.75;;;24.47;;
25868;SDS011;13688;53.154;18.136;2022-10-17T22:01:49;33.50;;;24.20;;
25868;SDS011;13688;53.154;18.136;2022-10-17T22:07:11;40.88;;;25.65;;
25868;SDS011;13688;53.154;18.136;2022-10-17T22:12:34;35.30;;;24.80;;
25868;SDS011;13688;53.154;18.136;2022-10-17T22:17:56;33.55;;;23.42;;
25868;SDS011;13688;53.154;18.136;2022-10-17T22:23:19;34.13;;;23.95;;
25868;SDS011;13688;53.154;18.136;2022-10-17T22:28:42;32.10;;;22.70;;
25868;SDS011;13688;53.154;18.136;2022-10-17T22:34:04;34.33;;;22.95;;
25868;SDS011;13688;53.154;18.136;2022-10-17T22:39:28;30.95;;;21.90;;
25868;SDS011;13688;53.154;18.136;2022-10-17T22:44:50;31.15;;;22.73;;
25868;SDS011;13688;53.154;18.136;2022-10-17T22:50:12;29.50;;;22.20;;
25868;SDS011;13688;53.154;18.136;2022-10-17T22:55:38;31.87;;;23.00;;
25868;SDS011;13688;53.154;18.136;2022-10-17T23:01:06;36.90;;;22.80;;
25868;SDS011;13688;53.154;18.136;2022-10-17T23:06:31;35.05;;;23.05;;
25868;SDS011;13688;53.154;18.136;2022-10-17T23:11:54;32.83;;;23.85;;
25868;SDS011;13688;53.154;18.136;2022-10-17T23:17:16;33.15;;;24.00;;
25868;SDS011;13688;53.154;18.136;2022-10-17T23:22:39;37.78;;;23.38;;
25868;SDS011;13688;53.154;18.136;2022-10-17T23:28:01;33.90;;;23.87;;
25868;SDS011;13688;53.154;18.136;2022-10-17T23:33:23;35.58;;;24.23;;
25868;SDS011;13688;53.154;18.136;2022-10-17T23:38:47;30.12;;;22.58;;
25868;SDS011;13688;53.154;18.136;2022-10-17T23:44:10;31.87;;;23.00;;
25868;SDS011;13688;53.154;18.136;2022-10-17T23:49:32;35.15;;;24.63;;
25868;SDS011;13688;53.154;18.136;2022-10-17T23:54:54;35.63;;;23.75;;
